Terminal Aerodrome Forecast
Issued by NWS

Home | Current Version | Previous Version | Text Only | Print | Product List | Glossary On
Versions: 1 2 3 4 5 6 7 8 9 10 11
937
FTUS46 KPDT 251120
TAFDLS
TAF
KDLS 251120Z 2512/2612 31010G20KT P6SM BKN060
     FM252000 31010KT P6SM OVC050
     FM260000 31007KT P6SM -RA OVC035
     FM260300 VRB06KT 6SM RA BKN020 OVC035
     FM260800 VRB06KT P6SM -RA BKN040 BKN070=

USA.gov is the U.S. government's official web portal to all federal, state and local government web resources and services.